createdAt,value
2016-04-01T00:00:10.392Z,716
2016-04-01T00:00:23.657Z,715.98
2016-04-01T00:00:36.972Z,716.43
2016-04-01T00:00:50.300Z,716.44
2016-04-01T00:01:03.581Z,716.21
2016-04-01T00:01:16.862Z,716.46
2016-04-01T00:01:30.131Z,716.44
2016-04-01T00:01:43.428Z,715.79
2016-04-01T00:01:56.694Z,715.87
2016-04-01T00:02:09.959Z,715.33
2016-04-01T00:02:23.240Z,716.2
2016-04-01T00:02:36.540Z,715.35
2016-04-01T00:02:49.837Z,715.53
2016-04-01T00:03:03.134Z,716.01
2016-04-01T00:03:16.447Z,715.99
2016-04-01T00:03:29.652Z,715.93
2016-04-01T00:03:42.917Z,715.97
2016-04-01T00:03:56.167Z,715.91
2016-04-01T00:04:09.449Z,715.8
2016-04-01T00:04:22.745Z,715.91
2016-04-01T00:04:36.030Z,715.49
2016-04-01T00:04:49.217Z,715.4
2016-04-01T00:05:02.514Z,715.43
2016-04-01T00:05:16.108Z,715.62
2016-04-01T00:05:29.391Z,716.04
2016-04-01T00:05:42.672Z,716.3
2016-04-01T00:05:55.969Z,716.1
2016-04-01T00:06:09.266Z,716.22
2016-04-01T00:06:22.532Z,716.88
2016-04-01T00:06:35.816Z,716.22
2016-04-01T00:06:49.082Z,715.34
2016-04-01T00:07:02.378Z,716.38
2016-04-01T00:07:15.660Z,716.45
2016-04-01T00:07:28.928Z,716.25
2016-04-01T00:07:42.053Z,716.29
2016-04-01T00:07:55.319Z,716.44
2016-04-01T00:08:08.585Z,716.23
2016-04-01T00:08:21.866Z,716.14
2016-04-01T00:08:35.119Z,716.16
2016-04-01T00:08:48.384Z,716.24
2016-04-01T00:09:01.666Z,716.3
2016-04-01T00:09:14.916Z,716.32
2016-04-01T00:09:28.168Z,716.43
2016-04-01T00:09:41.449Z,715.98
2016-04-01T00:09:54.699Z,715.76
2016-04-01T00:10:08.011Z,716.4
2016-04-01T00:10:21.386Z,716.07
2016-04-01T00:10:34.671Z,716.89
2016-04-01T00:10:47.936Z,716.32
2016-04-01T00:11:01.202Z,715.88
2016-04-01T00:11:14.483Z,716.09
2016-04-01T00:11:27.752Z,715.83
2016-04-01T00:11:41.033Z,715.72
2016-04-01T00:11:54.314Z,715.72
2016-04-01T00:12:07.580Z,715.94
2016-04-01T00:12:20.877Z,716.13
2016-04-01T00:12:34.192Z,716.34
2016-04-01T00:12:47.458Z,715.96
2016-04-01T00:13:00.739Z,715.62
2016-04-01T00:13:14.020Z,715.69
2016-04-01T00:13:27.304Z,716.56
2016-04-01T00:13:40.569Z,716.53
2016-04-01T00:13:53.866Z,716.53
2016-04-01T00:14:07.147Z,716.77
2016-04-01T00:14:19.663Z,716.64
2016-04-01T00:14:32.932Z,716.75
2016-04-01T00:14:46.229Z,716.29
2016-04-01T00:14:59.494Z,717.11
2016-04-01T00:15:12.807Z,716.47
2016-04-01T00:15:26.088Z,716.19
2016-04-01T00:15:39.371Z,716.14
2016-04-01T00:15:52.668Z,716.57
2016-04-01T00:16:06.043Z,715.98
2016-04-01T00:16:19.371Z,715.98
2016-04-01T00:16:32.688Z,716.02
2016-04-01T00:16:45.969Z,716.25
2016-04-01T00:16:59.266Z,716.12
2016-04-01T00:17:12.594Z,715.85
2016-04-01T00:17:25.860Z,715.95
2016-04-01T00:17:39.143Z,715.58
2016-04-01T00:17:52.440Z,715.92
2016-04-01T00:18:05.768Z,715.92
2016-04-01T00:18:19.112Z,715.79
2016-04-01T00:18:32.489Z,716.44
2016-04-01T00:18:45.770Z,716.43
2016-04-01T00:18:59.067Z,716.11
2016-04-01T00:19:12.395Z,716.45
2016-04-01T00:19:25.660Z,715.97
2016-04-01T00:19:38.946Z,715.88
2016-04-01T00:19:52.258Z,715.87
2016-04-01T00:20:05.555Z,716.4
2016-04-01T00:20:19.118Z,716.44
2016-04-01T00:20:32.401Z,716.92
2016-04-01T00:20:45.682Z,715.74
2016-04-01T00:20:58.948Z,715.44
2016-04-01T00:21:12.245Z,715.48
2016-04-01T00:21:25.541Z,716.4
2016-04-01T00:21:38.856Z,716.56
2016-04-01T00:21:52.122Z,716.28
2016-04-01T00:22:05.387Z,716.09
2016-04-01T00:22:18.715Z,715.94
2016-04-01T00:22:31.985Z,716.65
2016-04-01T00:22:45.251Z,716.24
2016-04-01T00:22:58.579Z,715.61
2016-04-01T00:23:11.829Z,716.28
2016-04-01T00:23:25.110Z,716.73
2016-04-01T00:23:38.409Z,716.38
2016-04-01T00:23:51.737Z,715.77
2016-04-01T00:24:05.018Z,716.21
2016-04-01T00:24:18.299Z,715.81
2016-04-01T00:24:31.599Z,715.02
2016-04-01T00:24:44.881Z,716.16
2016-04-01T00:24:58.193Z,716.14
2016-04-01T00:25:11.724Z,716.19
2016-04-01T00:25:25.021Z,716.31
2016-04-01T00:25:38.321Z,716.57
2016-04-01T00:25:51.618Z,716.42
2016-04-01T00:26:04.868Z,716.39
2016-04-01T00:26:18.134Z,715.82
2016-04-01T00:26:31.417Z,715.7
2016-04-01T00:26:44.745Z,716.28
2016-04-01T00:26:58.011Z,716.07
2016-04-01T00:27:11.307Z,716.07
2016-04-01T00:27:24.604Z,715.56
2016-04-01T00:27:37.920Z,715.38
2016-04-01T00:27:51.248Z,715.19
2016-04-01T00:28:04.514Z,715.09
2016-04-01T00:28:17.779Z,715.24
2016-04-01T00:28:31.062Z,715.15
2016-04-01T00:28:44.375Z,715
2016-04-01T00:28:57.656Z,715.78
2016-04-01T00:29:10.922Z,716.3
2016-04-01T00:29:24.187Z,716.39
2016-04-01T00:29:37.487Z,716.58
2016-04-01T00:29:50.784Z,716.05
2016-04-01T00:30:03.925Z,716.17
2016-04-01T00:30:17.519Z,716.22
2016-04-01T00:30:30.803Z,716.44
2016-04-01T00:30:44.131Z,715.53
2016-04-01T00:30:57.459Z,715.69
2016-04-01T00:31:10.725Z,715.76
2016-04-01T00:31:23.990Z,715.8
2016-04-01T00:31:37.149Z,715.63
2016-04-01T00:31:50.461Z,715.99
2016-04-01T00:32:03.617Z,716.07
2016-04-01T00:32:16.899Z,715.9
2016-04-01T00:32:30.199Z,715.69
2016-04-01T00:32:43.496Z,716.13
2016-04-01T00:32:56.824Z,715.82
2016-04-01T00:33:10.137Z,715.73
2016-04-01T00:33:23.543Z,715.79
2016-04-01T00:33:36.967Z,716.53
2016-04-01T00:33:50.076Z,716.42
2016-04-01T00:34:03.342Z,715.73
2016-04-01T00:34:16.639Z,715.81
2016-04-01T00:34:30.000Z,715.73
2016-04-01T00:34:43.266Z,715.57
2016-04-01T00:34:56.547Z,715.25
2016-04-01T00:35:09.828Z,715.12
2016-04-01T00:35:23.157Z,715.45
2016-04-01T00:35:36.426Z,715.15
2016-04-01T00:35:49.536Z,715.9
2016-04-01T00:36:02.817Z,716.05
2016-04-01T00:36:16.176Z,715.96
2016-04-01T00:36:29.475Z,716.18
2016-04-01T00:36:42.741Z,716.39
2016-04-01T00:36:56.006Z,716.67
2016-04-01T00:37:09.288Z,716.48
2016-04-01T00:37:22.616Z,716.3
2016-04-01T00:37:35.961Z,716.4
2016-04-01T00:37:49.227Z,716.38
2016-04-01T00:38:02.493Z,716.18
2016-04-01T00:38:15.758Z,716.02
2016-04-01T00:38:29.075Z,715.8
2016-04-01T00:38:42.340Z,716.45
2016-04-01T00:38:55.622Z,716.23
2016-04-01T00:39:08.903Z,715.86
2016-04-01T00:39:22.215Z,716.13
2016-04-01T00:39:35.342Z,716.63
2016-04-01T00:39:48.608Z,716.19
2016-04-01T00:40:01.874Z,716.01
2016-04-01T00:40:15.186Z,716.59
2016-04-01T00:40:28.486Z,716.51
2016-04-01T00:40:41.767Z,716.22
2016-04-01T00:40:55.049Z,716.03
2016-04-01T00:41:08.299Z,716.37
2016-04-01T00:41:21.595Z,716.03
2016-04-01T00:41:34.895Z,716.22
2016-04-01T00:41:48.145Z,716.31
2016-04-01T00:42:01.427Z,715.74
2016-04-01T00:42:14.708Z,716.12
2016-04-01T00:42:27.866Z,716.14
2016-04-01T00:42:41.022Z,716.36
2016-04-01T00:42:54.304Z,716.28
2016-04-01T00:43:07.554Z,716.22
2016-04-01T00:43:20.819Z,716.11
2016-04-01T00:43:34.103Z,716.22
2016-04-01T00:43:47.416Z,715.61
2016-04-01T00:44:00.697Z,715.47
2016-04-01T00:44:13.963Z,715.43
2016-04-01T00:44:27.213Z,716.02
2016-04-01T00:44:40.512Z,716.09
2016-04-01T00:44:53.793Z,716.39
2016-04-01T00:45:07.074Z,716.13
2016-04-01T00:45:19.684Z,716.18
2016-04-01T00:45:32.937Z,716.2
2016-04-01T00:45:46.249Z,716.32
2016-04-01T00:45:59.546Z,715.92
2016-04-01T00:46:12.827Z,715.71
2016-04-01T00:46:26.093Z,715.59
2016-04-01T00:46:39.377Z,715.71
2016-04-01T00:46:52.690Z,715.85
2016-04-01T00:47:05.955Z,716.37
2016-04-01T00:47:19.221Z,716.39
2016-04-01T00:47:32.504Z,716.39
2016-04-01T00:47:45.817Z,716.17
2016-04-01T00:47:59.098Z,716.59
2016-04-01T00:48:12.363Z,716.36
2016-04-01T00:48:25.676Z,716.25
2016-04-01T00:48:38.976Z,716.33
2016-04-01T00:48:52.226Z,716.57
2016-04-01T00:49:05.491Z,716.62
2016-04-01T00:49:18.773Z,716.71
2016-04-01T00:49:32.057Z,716.91
2016-04-01T00:49:45.338Z,716.37
2016-04-01T00:49:58.588Z,716.34
2016-04-01T00:50:11.901Z,715.72
2016-04-01T00:50:25.166Z,716.15
2016-04-01T00:50:38.451Z,716.21
2016-04-01T00:50:51.716Z,715.9
2016-04-01T00:51:04.982Z,716.01
2016-04-01T00:51:18.247Z,716.19
2016-04-01T00:51:31.532Z,716.36
2016-04-01T00:51:44.829Z,716.26
2016-04-01T00:51:58.094Z,716.18
2016-04-01T00:52:11.375Z,716.57
2016-04-01T00:52:24.657Z,716.25
2016-04-01T00:52:37.956Z,715.89
2016-04-01T00:52:51.237Z,716.08
2016-04-01T00:53:04.502Z,716.07
2016-04-01T00:53:17.784Z,716.14
2016-04-01T00:53:31.067Z,716.13
2016-04-01T00:53:44.333Z,715.63
2016-04-01T00:53:57.598Z,715.62
2016-04-01T00:54:10.864Z,715.58
2016-04-01T00:54:24.145Z,716.28
2016-04-01T00:54:37.415Z,716.54
2016-04-01T00:54:50.680Z,716.49
2016-04-01T00:55:03.977Z,716.12
2016-04-01T00:55:17.508Z,716.05
2016-04-01T00:55:30.777Z,716.31
2016-04-01T00:55:44.043Z,716.04
2016-04-01T00:55:57.324Z,716.07
2016-04-01T00:56:10.590Z,716.1
2016-04-01T00:56:23.886Z,716.34
2016-04-01T00:56:37.154Z,716.34
2016-04-01T00:56:50.435Z,716.66
2016-04-01T00:57:03.717Z,716.36
2016-04-01T00:57:16.998Z,716.42
2016-04-01T00:57:30.282Z,716.27
2016-04-01T00:57:43.563Z,716.44
2016-04-01T00:57:56.860Z,716.34
2016-04-01T00:58:10.126Z,716.34
2016-04-01T00:58:23.407Z,716.2
2016-04-01T00:58:36.690Z,716.24
2016-04-01T00:58:49.987Z,716.27
2016-04-01T00:59:03.253Z,716.13
2016-04-01T00:59:16.534Z,716.57
2016-04-01T00:59:29.818Z,716.41
2016-04-01T00:59:43.100Z,716.2
2016-04-01T00:59:56.365Z,716.65
2016-04-01T01:00:09.693Z,716.15
2016-04-01T01:00:22.959Z,716.49
2016-04-01T01:00:36.243Z,717.1
2016-04-01T01:00:49.524Z,716.03
2016-04-01T01:01:02.790Z,716
2016-04-01T01:01:16.071Z,716.89
2016-04-01T01:01:29.371Z,715.92
2016-04-01T01:01:42.652Z,716.42
2016-04-01T01:01:55.918Z,716.53
2016-04-01T01:02:09.184Z,716.47
2016-04-01T01:02:22.465Z,716.21
2016-04-01T01:02:35.733Z,716.28
2016-04-01T01:02:49.014Z,716.31
2016-04-01T01:03:02.326Z,716.11
2016-04-01T01:03:15.592Z,715.94
2016-04-01T01:03:29.282Z,715.9
2016-04-01T01:03:42.611Z,716.12
2016-04-01T01:03:55.876Z,716.05
2016-04-01T01:04:09.157Z,715.78
2016-04-01T01:04:22.423Z,715.9
2016-04-01T01:04:35.707Z,716.05
2016-04-01T01:04:48.989Z,716.28
2016-04-01T01:05:02.239Z,716.56
2016-04-01T01:05:15.645Z,716.86
2016-04-01T01:05:28.928Z,716.83
2016-04-01T01:05:42.194Z,716.4
2016-04-01T01:05:55.459Z,716.04
2016-04-01T01:06:08.741Z,716.03
2016-04-01T01:06:22.006Z,716.15
2016-04-01T01:06:35.290Z,716.19
2016-04-01T01:06:48.540Z,715.93
2016-04-01T01:07:01.822Z,716.06
2016-04-01T01:07:15.087Z,716.03
2016-04-01T01:07:28.371Z,715.82
2016-04-01T01:07:41.652Z,716.29
2016-04-01T01:07:54.917Z,715.78
2016-04-01T01:08:08.214Z,716.24
2016-04-01T01:08:21.511Z,716.56
2016-04-01T01:08:34.795Z,716.5
2016-04-01T01:08:48.061Z,716.47
2016-04-01T01:09:01.342Z,716.35
2016-04-01T01:09:14.608Z,717.01
2016-04-01T01:09:27.892Z,716.77
2016-04-01T01:09:41.189Z,716.55
2016-04-01T01:09:54.470Z,716.16
2016-04-01T01:10:08.111Z,716.87
2016-04-01T01:10:21.377Z,716.36
2016-04-01T01:10:34.645Z,716.17
2016-04-01T01:10:47.926Z,716.02
2016-04-01T01:11:01.208Z,716.18
2016-04-01T01:11:14.473Z,716.05
2016-04-01T01:11:27.739Z,715.77
2016-04-01T01:11:41.038Z,716.49
2016-04-01T01:11:54.319Z,716.7
2016-04-01T01:12:07.585Z,716.36
2016-04-01T01:12:20.850Z,715.7
2016-04-01T01:12:34.150Z,715.74
2016-04-01T01:12:47.416Z,715.56
2016-04-01T01:13:00.556Z,715.85
2016-04-01T01:13:13.838Z,716.7
2016-04-01T01:13:26.963Z,716.2
2016-04-01T01:13:40.247Z,716.51
2016-04-01T01:13:53.513Z,716.92
2016-04-01T01:14:06.809Z,716.69
2016-04-01T01:14:20.075Z,716.39
2016-04-01T01:14:33.343Z,716.66
2016-04-01T01:14:46.671Z,716.39
2016-04-01T01:14:59.952Z,717.1
2016-04-01T01:15:13.561Z,716.1
2016-04-01T01:15:26.827Z,715.27
2016-04-01T01:15:40.096Z,714.78
2016-04-01T01:15:53.377Z,715.62
2016-04-01T01:16:06.658Z,715.88
2016-04-01T01:16:19.939Z,716.26
2016-04-01T01:16:33.208Z,716.2
2016-04-01T01:16:46.474Z,716.21
2016-04-01T01:16:59.614Z,716.07
2016-04-01T01:17:12.880Z,716.66
2016-04-01T01:17:26.146Z,716.75
2016-04-01T01:17:39.413Z,716.29
2016-04-01T01:17:52.694Z,716.08
2016-04-01T01:18:05.960Z,716.31
2016-04-01T01:18:19.335Z,716.33
2016-04-01T01:18:32.635Z,717.18
2016-04-01T01:18:45.916Z,716.99
2016-04-01T01:18:59.182Z,715.76
2016-04-01T01:19:12.432Z,715.79
2016-04-01T01:19:25.682Z,716.08
2016-04-01T01:19:38.810Z,715.71
2016-04-01T01:19:52.075Z,715.68
2016-04-01T01:20:05.341Z,715.7
2016-04-01T01:20:18.685Z,716.03
2016-04-01T01:20:31.952Z,716.2
2016-04-01T01:20:45.249Z,716.27
2016-04-01T01:20:58.515Z,716.47
2016-04-01T01:21:11.781Z,716.3
2016-04-01T01:21:25.093Z,716.34
2016-04-01T01:21:38.377Z,716.42
2016-04-01T01:21:51.690Z,716.12
2016-04-01T01:22:04.955Z,716.03
2016-04-01T01:22:18.252Z,716.32
2016-04-01T01:22:31.537Z,716.28
2016-04-01T01:22:44.865Z,716.41
2016-04-01T01:22:58.130Z,716.67
2016-04-01T01:23:11.427Z,716.44
2016-04-01T01:23:24.708Z,717.21
2016-04-01T01:23:37.992Z,716.65
2016-04-01T01:23:51.273Z,716.34
2016-04-01T01:24:04.554Z,716.32
2016-04-01T01:24:17.851Z,716.14
2016-04-01T01:24:31.120Z,715.83
2016-04-01T01:24:44.401Z,715.89
2016-04-01T01:24:57.667Z,715.73
2016-04-01T01:25:11.354Z,715.7
2016-04-01T01:25:24.635Z,716.48
2016-04-01T01:25:37.920Z,715.51
2016-04-01T01:25:51.216Z,715.58
2016-04-01T01:26:04.498Z,716.26
2016-04-01T01:26:17.795Z,715.39
2016-04-01T01:26:31.078Z,715.93
2016-04-01T01:26:44.343Z,716.44
2016-04-01T01:26:57.640Z,716.08
2016-04-01T01:27:10.922Z,716.44
2016-04-01T01:27:24.218Z,716.28
2016-04-01T01:27:37.487Z,716.59
2016-04-01T01:27:50.768Z,716.61
2016-04-01T01:28:04.050Z,716.89
2016-04-01T01:28:17.331Z,716.58
2016-04-01T01:28:30.599Z,716.96
2016-04-01T01:28:43.881Z,716.28
2016-04-01T01:28:57.162Z,716.3
2016-04-01T01:29:10.428Z,716.1
2016-04-01T01:29:23.709Z,716.09
2016-04-01T01:29:37.009Z,716.58
2016-04-01T01:29:50.274Z,716.48
2016-04-01T01:30:03.540Z,716.42
2016-04-01T01:30:17.243Z,716.38
2016-04-01T01:30:30.526Z,716.19
2016-04-01T01:30:43.792Z,716.18
2016-04-01T01:30:57.058Z,715.64
2016-04-01T01:31:10.354Z,715.47
2016-04-01T01:31:23.604Z,715.25
2016-04-01T01:31:36.889Z,715.38
2016-04-01T01:31:50.154Z,715.48
2016-04-01T01:32:03.451Z,715.67
2016-04-01T01:32:16.561Z,715.69
2016-04-01T01:32:29.845Z,715.58
2016-04-01T01:32:43.110Z,715.62
2016-04-01T01:32:56.423Z,715.9
2016-04-01T01:33:09.689Z,716.09
2016-04-01T01:33:23.189Z,715.68
2016-04-01T01:33:36.862Z,715.72
2016-04-01T01:33:50.144Z,715.71
2016-04-01T01:34:03.409Z,716.04
2016-04-01T01:34:16.675Z,715.98
2016-04-01T01:34:29.944Z,716.27
2016-04-01T01:34:43.225Z,715.84
2016-04-01T01:34:56.506Z,715.63
2016-04-01T01:35:09.881Z,715.67
2016-04-01T01:35:23.178Z,716.11
2016-04-01T01:35:36.461Z,715.84
2016-04-01T01:35:49.727Z,716.24
2016-04-01T01:36:02.992Z,716.23
2016-04-01T01:36:16.274Z,716.38
2016-04-01T01:36:29.558Z,716.25
2016-04-01T01:36:42.824Z,716.17
2016-04-01T01:36:56.105Z,716.25
2016-04-01T01:37:09.386Z,716.45
2016-04-01T01:37:22.652Z,715.84
2016-04-01T01:37:35.920Z,716.08
2016-04-01T01:37:49.202Z,716.37
2016-04-01T01:38:02.483Z,715.81
2016-04-01T01:38:15.748Z,716.05
2016-04-01T01:38:29.033Z,716.08
2016-04-01T01:38:42.298Z,716.26
2016-04-01T01:38:55.595Z,716.15
2016-04-01T01:39:08.861Z,715.94
2016-04-01T01:39:22.142Z,715.98
2016-04-01T01:39:35.269Z,716.3
2016-04-01T01:39:48.566Z,716.18
2016-04-01T01:40:01.847Z,716.05
2016-04-01T01:40:15.191Z,716.15
2016-04-01T01:40:28.522Z,716.27
2016-04-01T01:40:41.819Z,716.11
2016-04-01T01:40:55.085Z,716.13
2016-04-01T01:41:08.335Z,715.85
2016-04-01T01:41:21.631Z,716.02
2016-04-01T01:41:34.916Z,716.02
2016-04-01T01:41:48.197Z,716.38
2016-04-01T01:42:01.463Z,717.03
2016-04-01T01:42:14.744Z,716.59
2016-04-01T01:42:28.025Z,716.61
2016-04-01T01:42:41.293Z,716.44
2016-04-01T01:42:54.574Z,716.65
2016-04-01T01:43:07.840Z,716.34
2016-04-01T01:43:21.121Z,716.66
2016-04-01T01:43:34.389Z,716.88
2016-04-01T01:43:47.671Z,716.48
2016-04-01T01:44:00.952Z,716.55
2016-04-01T01:44:14.218Z,716.38
2016-04-01T01:44:27.499Z,716.52
2016-04-01T01:44:40.782Z,716.34
2016-04-01T01:44:54.063Z,716.45
2016-04-01T01:45:07.798Z,716.27
2016-04-01T01:45:21.079Z,716.63
2016-04-01T01:45:34.364Z,715.82
2016-04-01T01:45:47.630Z,715.76
2016-04-01T01:46:00.911Z,716.06
2016-04-01T01:46:14.177Z,716.49
2016-04-01T01:46:27.442Z,716.57
2016-04-01T01:46:40.726Z,716.33
2016-04-01T01:46:53.991Z,716.47
2016-04-01T01:47:07.272Z,716.58
2016-04-01T01:47:20.554Z,716.58
2016-04-01T01:47:33.838Z,716.53
2016-04-01T01:47:47.119Z,716.57
2016-04-01T01:48:00.385Z,716.63
2016-04-01T01:48:13.666Z,716.1
2016-04-01T01:48:27.010Z,716.27
2016-04-01T01:48:40.294Z,716.4
2016-04-01T01:48:53.403Z,716.51
2016-04-01T01:49:06.685Z,716.37
2016-04-01T01:49:19.950Z,716.24
2016-04-01T01:49:33.218Z,716.59
2016-04-01T01:49:46.484Z,716.47
2016-04-01T01:49:59.749Z,716.62
2016-04-01T01:50:13.218Z,716.21
2016-04-01T01:50:26.468Z,716.3
2016-04-01T01:50:39.705Z,716.23
2016-04-01T01:50:52.971Z,716.52
2016-04-01T01:51:06.252Z,716.65
2016-04-01T01:51:19.549Z,716.62
2016-04-01T01:51:32.677Z,716.44
2016-04-01T01:51:45.974Z,716.22
2016-04-01T01:51:59.240Z,716.5
2016-04-01T01:52:12.536Z,716.62
2016-04-01T01:52:25.786Z,716.72
2016-04-01T01:52:39.085Z,716.86
2016-04-01T01:52:52.335Z,716.69
2016-04-01T01:53:05.617Z,716.58
2016-04-01T01:53:18.898Z,716.58
2016-04-01T01:53:32.182Z,716.25
2016-04-01T01:53:45.463Z,716.17
2016-04-01T01:53:58.745Z,716.5
2016-04-01T01:54:12.026Z,716.35
2016-04-01T01:54:25.291Z,716.42
2016-04-01T01:54:38.576Z,716.25
2016-04-01T01:54:51.841Z,716.08
2016-04-01T01:55:05.123Z,715.89
2016-04-01T01:55:18.466Z,716.32
2016-04-01T01:55:31.751Z,716.88
2016-04-01T01:55:45.016Z,716.54
2016-04-01T01:55:58.297Z,716.26
2016-04-01T01:56:11.563Z,716.09
2016-04-01T01:56:24.844Z,716.1
2016-04-01T01:56:38.112Z,715.99
2016-04-01T01:56:51.393Z,715.9
2016-04-01T01:57:04.674Z,716.11
2016-04-01T01:57:17.940Z,715.63
2016-04-01T01:57:31.068Z,716.13
2016-04-01T01:57:44.349Z,715.93
2016-04-01T01:57:57.615Z,716.45
2016-04-01T01:58:10.740Z,716.41
2016-04-01T01:58:24.021Z,716.23
2016-04-01T01:58:37.321Z,716.18
2016-04-01T01:58:50.587Z,716.28
2016-04-01T01:59:03.884Z,716.13
2016-04-01T01:59:17.134Z,716.32
2016-04-01T01:59:30.417Z,716.46
2016-04-01T01:59:43.698Z,716.46
2016-04-01T01:59:56.964Z,716.63
2016-04-01T02:00:10.401Z,716.43
2016-04-01T02:00:23.682Z,716.24
2016-04-01T02:00:36.951Z,716.31
2016-04-01T02:00:50.232Z,716.54
2016-04-01T02:01:03.514Z,716.52
2016-04-01T02:01:16.779Z,716.55
2016-04-01T02:01:30.062Z,716.28
2016-04-01T02:01:43.344Z,716.44
2016-04-01T02:01:56.625Z,716.28
2016-04-01T02:02:09.891Z,716.27
2016-04-01T02:02:23.172Z,716.29
2016-04-01T02:02:36.456Z,716.16
2016-04-01T02:02:49.769Z,716.28
2016-04-01T02:03:03.034Z,716.82
2016-04-01T02:03:16.315Z,716.58
2016-04-01T02:03:29.740Z,716.26
2016-04-01T02:03:43.162Z,716.06
2016-04-01T02:03:56.428Z,715.92
2016-04-01T02:04:09.693Z,716.38
2016-04-01T02:04:22.959Z,716.53
2016-04-01T02:04:36.258Z,716.3
2016-04-01T02:04:49.524Z,716.48
2016-04-01T02:05:02.836Z,716.16
2016-04-01T02:05:16.227Z,716.39
2016-04-01T02:05:29.495Z,716.29
2016-04-01T02:05:42.761Z,716.12
2016-04-01T02:05:56.042Z,716.66
2016-04-01T02:06:09.323Z,716.42
2016-04-01T02:06:22.589Z,716.32
2016-04-01T02:06:35.873Z,716.34
2016-04-01T02:06:49.155Z,716.39
2016-04-01T02:07:02.436Z,716.57
2016-04-01T02:07:15.748Z,716.38
2016-04-01T02:07:28.561Z,716.51
2016-04-01T02:07:41.861Z,716.35
2016-04-01T02:07:54.819Z,716.34
2016-04-01T02:08:07.928Z,716.45
2016-04-01T02:08:48.680Z,716.28
2016-04-01T02:09:01.930Z,716.37
2016-04-01T02:09:15.227Z,716.99
2016-04-01T02:09:28.493Z,716.35
2016-04-01T02:09:41.777Z,716.16
2016-04-01T02:09:55.042Z,716
2016-04-01T02:10:08.839Z,716.37
2016-04-01T02:10:22.105Z,716.18
2016-04-01T02:10:35.374Z,716.3
2016-04-01T02:10:48.639Z,716.31
2016-04-01T02:11:01.952Z,716.47
2016-04-01T02:11:15.217Z,716.26
2016-04-01T02:11:28.499Z,716.07
2016-04-01T02:11:41.798Z,716.15
2016-04-01T02:11:55.064Z,716.36
2016-04-01T02:12:08.345Z,716.26
2016-04-01T02:12:21.627Z,716.97
2016-04-01T02:12:34.894Z,716.33
2016-04-01T02:12:48.175Z,716.67
2016-04-01T02:13:01.457Z,716.78
2016-04-01T02:13:14.738Z,716.4
2016-04-01T02:13:28.035Z,717.03
2016-04-01T02:13:41.319Z,716.37
2016-04-01T02:13:54.663Z,716.32
2016-04-01T02:14:07.944Z,716.38
2016-04-01T02:14:21.210Z,716.31
2016-04-01T02:14:34.477Z,717.16
2016-04-01T02:14:47.774Z,716.98
2016-04-01T02:15:01.055Z,716.83
2016-04-01T02:15:14.665Z,716.93
2016-04-01T02:15:27.946Z,716.65
2016-04-01T02:15:41.246Z,716.65
2016-04-01T02:15:54.527Z,716.61
2016-04-01T02:16:07.793Z,716.77
2016-04-01T02:16:21.074Z,716.65
2016-04-01T02:16:34.358Z,716.74
2016-04-01T02:16:47.655Z,716.81
2016-04-01T02:17:00.936Z,716.86
2016-04-01T02:17:14.218Z,716.41
2016-04-01T02:17:27.499Z,716.7
2016-04-01T02:17:40.783Z,716.59
2016-04-01T02:17:54.064Z,716.82
2016-04-01T02:18:07.330Z,716.58
2016-04-01T02:18:20.471Z,716.75
2016-04-01T02:18:33.614Z,716.77
2016-04-01T02:18:46.974Z,716.07
2016-04-01T02:19:00.239Z,716.45
2016-04-01T02:19:13.489Z,716.35
2016-04-01T02:19:26.739Z,716.61
2016-04-01T02:19:40.132Z,716.51
2016-04-01T02:19:53.382Z,716.67
2016-04-01T02:20:07.007Z,716.49
2016-04-01T02:20:20.335Z,716.59
2016-04-01T02:20:33.571Z,716.74
2016-04-01T02:20:46.837Z,716.41
2016-04-01T02:21:00.103Z,716.35
2016-04-01T02:21:13.368Z,716.27
2016-04-01T02:21:26.650Z,715.96
2016-04-01T02:21:39.934Z,715.68
2016-04-01T02:21:53.231Z,716.02
2016-04-01T02:22:06.496Z,715.67
2016-04-01T02:22:19.809Z,715.96
2016-04-01T02:22:33.077Z,716.06
2016-04-01T02:22:46.343Z,716.46
2016-04-01T02:22:59.624Z,716.61
2016-04-01T02:23:12.749Z,716.77
2016-04-01T02:23:26.031Z,716.75
2016-04-01T02:23:39.330Z,716.78
2016-04-01T02:23:52.596Z,716.88
2016-04-01T02:24:05.862Z,716.68
2016-04-01T02:24:19.159Z,716.64
2016-04-01T02:24:32.457Z,717
2016-04-01T02:24:45.723Z,716.64
2016-04-01T02:24:59.004Z,716.54
2016-04-01T02:25:12.504Z,716.44
2016-04-01T02:25:25.786Z,716.43
2016-04-01T02:25:39.054Z,715.62
2016-04-01T02:25:52.351Z,716.06
2016-04-01T02:26:05.648Z,715.87
2016-04-01T02:26:18.929Z,716.26
2016-04-01T02:26:32.213Z,716.39
2016-04-01T02:26:45.510Z,716.26
2016-04-01T02:26:58.698Z,716.34
2016-04-01T02:27:11.948Z,716.88
2016-04-01T02:27:25.213Z,717.22
2016-04-01T02:27:38.513Z,716.67
2016-04-01T02:27:51.810Z,716.53
2016-04-01T02:28:05.091Z,716.34
2016-04-01T02:28:18.357Z,716.37
2016-04-01T02:28:31.626Z,716.35
2016-04-01T02:28:44.907Z,716.36
2016-04-01T02:28:58.266Z,716.44
2016-04-01T02:29:11.548Z,716.55
2016-04-01T02:29:24.813Z,716.44
2016-04-01T02:29:38.096Z,716.88
2016-04-01T02:29:51.393Z,716.63
2016-04-01T02:30:04.721Z,716.58
2016-04-01T02:30:18.284Z,716.92
2016-04-01T02:30:31.568Z,716.83
2016-04-01T02:30:44.865Z,716.6
2016-04-01T02:30:58.131Z,716.24
2016-04-01T02:31:11.396Z,716.27
2016-04-01T02:31:24.693Z,716.34
2016-04-01T02:31:37.992Z,716.3
2016-04-01T02:31:51.258Z,716.47
2016-04-01T02:32:04.523Z,716.67
2016-04-01T02:32:17.836Z,716.61
2016-04-01T02:32:31.104Z,716.45
2016-04-01T02:32:44.401Z,716.36
2016-04-01T02:32:57.683Z,716.77
2016-04-01T02:33:10.979Z,716.83
2016-04-01T02:33:24.308Z,716.77
2016-04-01T02:33:37.888Z,716.94
2016-04-01T02:33:51.169Z,716.58
2016-04-01T02:34:04.450Z,716.81
2016-04-01T02:34:17.716Z,716.61
2016-04-01T02:34:31.000Z,716.52
2016-04-01T02:34:44.281Z,716.83
2016-04-01T02:34:57.563Z,716.59
2016-04-01T02:35:11.141Z,716.28
2016-04-01T02:35:24.438Z,716.3
2016-04-01T02:35:37.706Z,716.6
2016-04-01T02:35:50.972Z,716.86
2016-04-01T02:36:04.253Z,717.41
2016-04-01T02:36:17.519Z,716.77
2016-04-01T02:36:30.662Z,716.82
2016-04-01T02:36:43.928Z,716.38
2016-04-01T02:36:57.209Z,716.15
2016-04-01T02:37:10.490Z,716.34
2016-04-01T02:37:23.772Z,716.49
2016-04-01T02:37:37.040Z,716.84
2016-04-01T02:37:50.322Z,716.65
2016-04-01T02:38:03.587Z,716.59
2016-04-01T02:38:16.868Z,716.79
2016-04-01T02:38:30.152Z,716.72
2016-04-01T02:38:43.449Z,716.6
2016-04-01T02:38:56.761Z,716.74
2016-04-01T02:39:10.027Z,716.61
2016-04-01T02:39:23.308Z,716.67
2016-04-01T02:39:36.623Z,717.06
2016-04-01T02:39:49.967Z,716.62
2016-04-01T02:40:03.233Z,716.67
2016-04-01T02:40:16.764Z,716.43
2016-04-01T02:40:30.047Z,716.32
2016-04-01T02:40:43.360Z,716.26
2016-04-01T02:40:56.657Z,716.18
2016-04-01T02:41:09.922Z,716.22
2016-04-01T02:41:23.172Z,716.1
2016-04-01T02:41:36.457Z,715.9
2016-04-01T02:41:49.785Z,716.08
2016-04-01T02:42:03.082Z,716.2
2016-04-01T02:42:16.347Z,716.09
2016-04-01T02:42:29.630Z,716.49
2016-04-01T02:42:42.927Z,716.33
2016-04-01T02:42:56.240Z,717.1
2016-04-01T02:43:09.505Z,717.37
2016-04-01T02:43:22.771Z,717.24
2016-04-01T02:43:36.040Z,716.78
2016-04-01T02:43:49.352Z,717.22
2016-04-01T02:44:02.633Z,716.8
2016-04-01T02:44:15.899Z,716.92
2016-04-01T02:44:29.149Z,716.71
2016-04-01T02:44:42.449Z,716.84
2016-04-01T02:44:55.761Z,716.8
2016-04-01T02:45:09.465Z,716.3
2016-04-01T02:45:22.746Z,716.36
2016-04-01T02:45:36.013Z,716.41
2016-04-01T02:45:49.310Z,716.06
2016-04-01T02:46:02.638Z,716
2016-04-01T02:46:15.935Z,716.39
2016-04-01T02:46:29.220Z,716.71
2016-04-01T02:46:42.501Z,716.9
2016-04-01T02:46:55.798Z,716.37